createdAt,value
2017-06-11T00:02:18.353Z,79.00
2017-06-11T00:04:46.001Z,79.20
2017-06-11T00:07:14.451Z,79.70
2017-06-11T00:09:42.085Z,79.70
2017-06-11T00:12:09.761Z,79.80
2017-06-11T00:14:37.394Z,80.00
2017-06-11T00:17:05.072Z,80.30
2017-06-11T00:19:32.776Z,80.90
2017-06-11T00:22:00.456Z,80.70
2017-06-11T00:24:28.173Z,81.10
2017-06-11T00:26:55.861Z,81.10
2017-06-11T00:29:23.548Z,81.10
2017-06-11T00:31:51.186Z,81.30
2017-06-11T00:34:18.970Z,82.30
2017-06-11T00:36:46.614Z,82.60
2017-06-11T00:39:14.254Z,82.10
2017-06-11T00:41:41.921Z,81.80
2017-06-11T00:44:10.340Z,82.50
2017-06-11T00:46:38.029Z,82.50
2017-06-11T00:49:05.657Z,82.60
2017-06-11T00:51:33.297Z,82.50
2017-06-11T00:54:00.979Z,82.10
2017-06-11T00:56:28.624Z,82.10
2017-06-11T00:58:57.033Z,82.00
2017-06-11T01:01:24.716Z,82.10
2017-06-11T01:03:52.360Z,81.80
2017-06-11T01:06:20.004Z,81.90
2017-06-11T01:08:47.681Z,81.80
2017-06-11T01:11:15.325Z,81.60
2017-06-11T01:13:42.965Z,81.60
2017-06-11T01:16:11.404Z,81.40
2017-06-11T01:18:39.039Z,81.40
2017-06-11T01:21:06.741Z,82.10
2017-06-11T01:23:34.398Z,82.50
2017-06-11T01:26:02.048Z,82.70
2017-06-11T01:28:29.726Z,83.10
2017-06-11T01:30:57.384Z,83.40
2017-06-11T01:33:25.076Z,83.80
2017-06-11T01:35:52.723Z,84.30
2017-06-11T01:38:20.362Z,84.60
2017-06-11T01:40:48.808Z,85.10
2017-06-11T01:43:16.457Z,85.10
2017-06-11T01:45:44.137Z,85.60
2017-06-11T01:48:11.781Z,85.40
2017-06-11T01:50:39.427Z,85.60
2017-06-11T01:53:07.116Z,85.80
2017-06-11T01:55:34.764Z,86.20
2017-06-11T01:58:02.448Z,86.30
2017-06-11T02:00:30.888Z,86.10
2017-06-11T02:02:58.554Z,86.10
2017-06-11T02:05:26.241Z,86.10
2017-06-11T02:07:53.893Z,85.80
2017-06-11T02:10:21.572Z,86.40
2017-06-11T02:12:49.228Z,86.50
2017-06-11T02:15:16.877Z,86.70
2017-06-11T02:17:44.546Z,87.00
2017-06-11T02:20:12.982Z,87.00
2017-06-11T02:22:40.668Z,87.00
2017-06-11T02:25:09.073Z,87.20
2017-06-11T02:27:36.740Z,87.10
2017-06-11T02:30:04.397Z,87.50
2017-06-11T02:32:32.868Z,87.90
2017-06-11T02:35:01.272Z,88.40
2017-06-11T02:37:28.922Z,88.40
2017-06-11T02:39:56.600Z,88.60
2017-06-11T02:42:24.241Z,89.30
2017-06-11T02:44:51.921Z,89.30
2017-06-11T02:47:20.349Z,89.10
2017-06-11T02:49:47.982Z,89.00
2017-06-11T02:52:15.680Z,89.00
2017-06-11T02:54:43.356Z,89.30
2017-06-11T02:57:11.041Z,89.50
2017-06-11T02:59:38.673Z,89.80
2017-06-11T03:02:06.322Z,89.70
2017-06-11T03:04:34.008Z,89.60
2017-06-11T03:07:01.748Z,90.20
2017-06-11T03:09:29.447Z,90.70
2017-06-11T03:12:09.066Z,90.50
2017-06-11T03:14:37.068Z,90.00
2017-06-11T03:17:04.717Z,89.90
2017-06-11T03:19:32.358Z,90.00
2017-06-11T03:22:00.029Z,88.90
2017-06-11T03:24:27.681Z,88.10
2017-06-11T03:26:56.196Z,87.70
2017-06-11T03:29:23.831Z,87.60
2017-06-11T03:31:51.490Z,88.00
2017-06-11T03:34:19.159Z,87.70
2017-06-11T03:36:46.806Z,87.90
2017-06-11T03:39:14.514Z,88.20
2017-06-11T03:41:42.167Z,88.60
2017-06-11T03:44:09.808Z,88.00
2017-06-11T03:46:37.477Z,87.50
2017-06-11T03:49:05.117Z,87.20
2017-06-11T03:51:32.815Z,86.90
2017-06-11T03:54:00.464Z,86.70
2017-06-11T03:56:28.105Z,86.50
2017-06-11T03:58:55.773Z,86.50
2017-06-11T04:01:23.425Z,86.30
2017-06-11T04:03:51.112Z,86.20
2017-06-11T04:06:18.753Z,86.40
2017-06-11T04:08:46.405Z,85.80
2017-06-11T04:11:14.182Z,86.10
2017-06-11T04:13:41.821Z,85.80
2017-06-11T04:16:09.525Z,85.90
2017-06-11T04:18:37.160Z,85.20
2017-06-11T04:21:04.789Z,85.20
2017-06-11T04:23:32.532Z,84.60
2017-06-11T04:26:00.171Z,84.30
2017-06-11T04:28:28.616Z,84.90
2017-06-11T04:30:56.254Z,83.90
2017-06-11T04:33:23.889Z,80.60
2017-06-11T04:35:51.872Z,76.60
2017-06-11T04:38:19.518Z,74.50
2017-06-11T04:40:47.194Z,73.20
2017-06-11T04:43:14.827Z,71.90
2017-06-11T04:45:42.462Z,70.00
2017-06-11T04:48:10.124Z,68.90
2017-06-11T04:50:38.525Z,65.50
2017-06-11T04:53:06.208Z,65.40
2017-06-11T04:55:33.854Z,64.30
2017-06-11T04:58:01.488Z,60.30
2017-06-11T05:00:29.161Z,60.00
2017-06-11T05:02:56.805Z,58.30
2017-06-11T05:05:24.518Z,59.60
2017-06-11T05:07:52.177Z,57.60
2017-06-11T05:10:19.810Z,57.90
2017-06-11T05:12:47.481Z,55.50
2017-06-11T05:15:15.127Z,56.80
2017-06-11T05:17:42.814Z,52.50
2017-06-11T05:20:10.463Z,51.50
2017-06-11T05:22:38.869Z,50.40
2017-06-11T05:25:06.546Z,50.50
2017-06-11T05:27:34.185Z,52.00
2017-06-11T05:30:01.877Z,50.10
2017-06-11T05:32:29.513Z,50.90
2017-06-11T05:34:57.912Z,50.60
2017-06-11T05:37:25.589Z,50.60
2017-06-11T05:39:53.226Z,48.60
2017-06-11T05:42:20.913Z,47.10
2017-06-11T05:44:49.312Z,49.40
2017-06-11T05:47:16.927Z,49.40
2017-06-11T05:49:44.663Z,49.20
2017-06-11T05:52:12.276Z,47.00
2017-06-11T05:54:39.938Z,45.10
2017-06-11T05:57:07.548Z,42.80
2017-06-11T05:59:35.174Z,38.90
2017-06-11T06:02:02.821Z,37.80
2017-06-11T06:04:31.202Z,35.50
2017-06-11T06:06:58.864Z,36.10
2017-06-11T06:09:26.481Z,33.90
2017-06-11T06:11:54.102Z,31.50
2017-06-11T06:14:21.754Z,30.70
2017-06-11T06:16:49.377Z,29.40
2017-06-11T06:19:17.084Z,27.10
2017-06-11T06:21:44.703Z,26.70
2017-06-11T06:24:12.311Z,25.60
2017-06-11T06:26:40.132Z,25.00
2017-06-11T06:29:07.754Z,25.40
2017-06-11T06:31:36.198Z,25.60
2017-06-11T06:34:03.822Z,25.60
2017-06-11T06:36:31.435Z,24.90
2017-06-11T06:38:59.072Z,21.90
2017-06-11T06:41:26.686Z,22.60
2017-06-11T06:43:54.345Z,22.30
2017-06-11T06:46:21.958Z,21.60
2017-06-11T06:48:49.575Z,21.70
2017-06-11T06:51:17.221Z,20.30
2017-06-11T06:53:44.829Z,20.70
2017-06-11T06:56:12.483Z,20.70
2017-06-11T06:58:40.095Z,20.20
2017-06-11T07:01:07.718Z,21.10
2017-06-11T07:03:35.358Z,22.10
2017-06-11T07:06:02.964Z,18.70
2017-06-11T07:08:30.630Z,19.40
2017-06-11T07:10:58.773Z,19.10
2017-06-11T07:13:26.410Z,19.30
2017-06-11T07:15:55.374Z,19.20
2017-06-11T07:18:22.992Z,18.20
2017-06-11T07:20:50.660Z,18.00
2017-06-11T07:23:18.274Z,17.90
2017-06-11T07:25:45.881Z,17.60
2017-06-11T07:28:13.557Z,16.50
2017-06-11T07:30:41.639Z,16.40
2017-06-11T07:33:09.312Z,16.90
2017-06-11T07:35:36.929Z,16.60
2017-06-11T07:38:04.649Z,16.30
2017-06-11T07:40:32.298Z,16.80
2017-06-11T07:42:59.963Z,15.90
2017-06-11T07:45:27.626Z,16.90
2017-06-11T07:47:55.233Z,16.80
2017-06-11T07:50:22.869Z,15.40
2017-06-11T07:52:50.527Z,14.70
2017-06-11T07:55:18.144Z,15.20
2017-06-11T07:57:45.810Z,15.50
2017-06-11T08:00:13.432Z,16.70
2017-06-11T08:02:41.036Z,15.50
2017-06-11T08:05:08.678Z,15.00
2017-06-11T08:07:36.292Z,15.60
2017-06-11T08:10:03.948Z,16.30
2017-06-11T08:12:31.577Z,15.90
2017-06-11T08:14:59.189Z,14.50
2017-06-11T08:17:26.937Z,15.30
2017-06-11T08:19:54.556Z,16.20
2017-06-11T08:22:22.228Z,15.70
2017-06-11T08:24:49.833Z,15.10
2017-06-11T08:27:17.439Z,14.30
2017-06-11T08:29:45.087Z,14.00
2017-06-11T08:32:12.700Z,14.30
2017-06-11T08:34:40.348Z,13.40
2017-06-11T08:37:07.954Z,14.50
2017-06-11T08:39:35.653Z,13.70
2017-06-11T08:42:04.809Z,14.70
2017-06-11T08:44:32.671Z,14.00
2017-06-11T08:47:00.400Z,14.10
2017-06-11T08:49:28.014Z,15.20
2017-06-11T08:51:55.631Z,15.70
2017-06-11T08:54:23.438Z,15.00
2017-06-11T08:56:51.089Z,14.90
2017-06-11T08:59:18.746Z,13.90
2017-06-11T09:01:46.379Z,13.90
2017-06-11T09:04:14.216Z,14.90
2017-06-11T09:06:42.464Z,13.40
2017-06-11T09:09:10.086Z,11.90
2017-06-11T09:11:37.741Z,9.80
2017-06-11T09:14:05.350Z,10.40
2017-06-11T09:16:32.998Z,10.50
2017-06-11T09:19:00.631Z,12.20
2017-06-11T09:21:28.245Z,12.90
2017-06-11T09:23:55.908Z,12.40
2017-06-11T09:26:23.837Z,14.30
2017-06-11T09:28:52.217Z,12.10
2017-06-11T09:31:20.788Z,11.30
2017-06-11T09:33:48.392Z,11.30
2017-06-11T09:36:16.037Z,12.50
2017-06-11T09:38:43.672Z,10.90
2017-06-11T09:41:11.276Z,12.60
2017-06-11T09:43:38.918Z,11.70
2017-06-11T09:46:06.524Z,13.40
2017-06-11T09:48:34.179Z,15.10
2017-06-11T09:51:01.787Z,13.30
2017-06-11T09:53:29.401Z,13.00
2017-06-11T09:55:57.046Z,12.40
2017-06-11T09:58:24.648Z,13.50
2017-06-11T10:00:52.308Z,12.80
2017-06-11T10:03:19.926Z,13.10
2017-06-11T10:05:47.580Z,12.90
2017-06-11T10:08:15.217Z,12.50
2017-06-11T10:10:42.822Z,10.60
2017-06-11T10:13:10.481Z,11.90
2017-06-11T10:15:38.090Z,13.50
2017-06-11T10:18:05.701Z,13.40
2017-06-11T10:20:33.370Z,11.00
2017-06-11T10:23:00.976Z,10.20
2017-06-11T10:25:28.636Z,12.10
2017-06-11T10:27:56.250Z,11.40
2017-06-11T10:30:23.943Z,11.70
2017-06-11T10:32:51.592Z,11.20
2017-06-11T10:35:19.200Z,12.00
2017-06-11T10:37:46.852Z,11.90
2017-06-11T10:40:14.452Z,11.80
2017-06-11T10:42:42.061Z,13.60
2017-06-11T10:45:09.718Z,12.50
2017-06-11T10:47:37.332Z,10.80
2017-06-11T10:50:04.992Z,11.30
2017-06-11T10:52:33.517Z,12.10
2017-06-11T10:55:01.162Z,12.10
2017-06-11T10:57:29.565Z,13.60
2017-06-11T10:59:57.180Z,13.50
2017-06-11T11:02:24.831Z,13.10
2017-06-11T11:04:52.436Z,13.20
2017-06-11T11:07:20.053Z,13.90
2017-06-11T11:09:47.744Z,11.50
2017-06-11T11:12:15.360Z,13.70
2017-06-11T11:14:43.016Z,14.40
2017-06-11T11:17:10.649Z,15.30
2017-06-11T11:19:38.263Z,14.80
2017-06-11T11:22:05.900Z,15.00
2017-06-11T11:24:33.524Z,13.90
2017-06-11T11:27:01.197Z,15.10
2017-06-11T11:29:28.895Z,15.80
2017-06-11T11:31:56.496Z,13.70
2017-06-11T11:34:24.153Z,14.60
2017-06-11T11:36:51.755Z,14.40
2017-06-11T11:39:19.436Z,15.50
2017-06-11T11:41:47.128Z,15.80
2017-06-11T11:44:14.776Z,15.90
2017-06-11T11:46:42.447Z,14.20
2017-06-11T11:49:10.107Z,15.10
2017-06-11T11:51:37.856Z,17.00
2017-06-11T11:54:06.244Z,17.90
2017-06-11T11:56:33.845Z,17.90
2017-06-11T11:59:01.476Z,17.90
2017-06-11T12:01:29.087Z,17.70
2017-06-11T12:03:56.733Z,17.60
2017-06-11T12:06:25.169Z,17.70
2017-06-11T12:08:52.769Z,18.50
2017-06-11T12:11:20.408Z,17.40
2017-06-11T12:13:48.037Z,17.30
2017-06-11T12:16:15.708Z,18.00
2017-06-11T12:18:43.436Z,17.30
2017-06-11T12:21:11.046Z,18.80
2017-06-11T12:23:38.712Z,18.00
2017-06-11T12:26:06.322Z,18.50
2017-06-11T12:28:33.980Z,18.70
2017-06-11T12:31:01.612Z,19.40
2017-06-11T12:33:29.220Z,20.00
2017-06-11T12:35:58.439Z,18.90
2017-06-11T12:38:26.056Z,18.20
2017-06-11T12:40:53.714Z,18.00
2017-06-11T12:43:21.331Z,18.40
2017-06-11T12:45:49.545Z,17.60
2017-06-11T12:48:18.100Z,18.00
2017-06-11T12:50:45.752Z,19.80
2017-06-11T12:53:13.464Z,19.10
2017-06-11T12:55:41.078Z,18.10
2017-06-11T12:58:08.684Z,20.10
2017-06-11T13:00:36.329Z,19.40
2017-06-11T13:03:03.943Z,20.00
2017-06-11T13:05:31.595Z,18.30
2017-06-11T13:07:59.203Z,17.50
2017-06-11T13:10:26.824Z,17.70
2017-06-11T13:12:54.472Z,17.50
2017-06-11T13:15:22.092Z,17.70
2017-06-11T13:17:49.768Z,18.90
2017-06-11T13:20:17.380Z,18.10
2017-06-11T13:22:44.996Z,18.50
2017-06-11T13:25:12.882Z,18.00
2017-06-11T13:27:47.823Z,17.30
2017-06-11T13:30:15.576Z,18.80
2017-06-11T13:32:43.197Z,17.20
2017-06-11T13:35:10.838Z,17.30
2017-06-11T13:37:38.499Z,18.50
2017-06-11T13:40:06.121Z,17.00
2017-06-11T13:42:33.772Z,18.40
2017-06-11T13:45:01.397Z,17.70
2017-06-11T13:47:29.069Z,18.10
2017-06-11T13:49:56.752Z,18.60
2017-06-11T13:52:24.377Z,18.30
2017-06-11T13:54:52.042Z,17.80
2017-06-11T13:57:19.672Z,17.30
2017-06-11T13:59:47.308Z,17.30
2017-06-11T14:02:15.119Z,17.00
2017-06-11T14:04:42.765Z,18.60
2017-06-11T14:07:10.430Z,19.00
2017-06-11T14:09:38.036Z,16.60
2017-06-11T14:12:05.652Z,17.30
2017-06-11T14:14:33.308Z,17.60
2017-06-11T14:17:01.004Z,19.10
2017-06-11T14:19:28.660Z,18.40
2017-06-11T14:21:56.288Z,18.10
2017-06-11T14:24:24.090Z,17.40
2017-06-11T14:26:53.151Z,16.50
2017-06-11T14:29:20.929Z,17.00
2017-06-11T14:31:48.602Z,18.00
2017-06-11T14:34:16.493Z,16.60
2017-06-11T14:36:45.109Z,17.10
2017-06-11T14:39:12.840Z,18.90
2017-06-11T14:41:40.501Z,17.70
2017-06-11T14:44:08.224Z,16.70
2017-06-11T14:46:35.863Z,17.40
2017-06-11T14:49:03.605Z,17.30
2017-06-11T14:51:31.330Z,17.60
2017-06-11T14:53:58.977Z,17.80
2017-06-11T14:56:26.666Z,17.40
2017-06-11T14:58:54.314Z,19.30
2017-06-11T15:01:22.213Z,17.90
2017-06-11T15:03:49.995Z,18.40
2017-06-11T15:06:17.710Z,18.40
2017-06-11T15:08:45.503Z,19.70
2017-06-11T15:11:13.130Z,17.40
2017-06-11T15:13:41.920Z,18.50
2017-06-11T15:16:09.535Z,18.40
2017-06-11T15:18:37.345Z,19.30
2017-06-11T15:21:05.820Z,18.00
2017-06-11T15:23:33.543Z,18.40
2017-06-11T15:26:01.204Z,18.90
2017-06-11T15:28:28.849Z,19.40
2017-06-11T15:30:56.530Z,20.00
2017-06-11T15:33:24.152Z,20.40
2017-06-11T15:35:51.774Z,20.90
2017-06-11T15:38:19.489Z,18.80
2017-06-11T15:40:47.173Z,20.00
2017-06-11T15:43:14.910Z,19.80
2017-06-11T15:45:42.520Z,21.00
2017-06-11T15:48:10.152Z,20.90
2017-06-11T15:50:37.815Z,21.50
2017-06-11T15:53:05.440Z,20.30
2017-06-11T15:55:33.146Z,21.70
2017-06-11T15:58:00.841Z,22.10
2017-06-11T16:00:29.513Z,23.20
2017-06-11T16:02:57.189Z,23.80
2017-06-11T16:05:24.812Z,23.60
2017-06-11T16:07:52.567Z,22.50
2017-06-11T16:10:20.317Z,22.40
2017-06-11T16:12:47.932Z,22.70
2017-06-11T16:15:15.763Z,22.70
2017-06-11T16:17:43.408Z,22.30
2017-06-11T16:20:11.087Z,22.10
2017-06-11T16:22:38.730Z,22.10
2017-06-11T16:25:07.202Z,21.60
2017-06-11T16:27:35.237Z,21.50
2017-06-11T16:30:03.743Z,21.40
2017-06-11T16:32:31.434Z,21.40
2017-06-11T16:34:59.040Z,21.80
2017-06-11T16:37:26.657Z,21.80
2017-06-11T16:39:54.337Z,21.80
2017-06-11T16:42:21.955Z,22.60
2017-06-11T16:44:49.644Z,22.30
2017-06-11T16:47:17.249Z,21.90
2017-06-11T16:49:44.931Z,22.20
2017-06-11T16:52:12.631Z,22.50
2017-06-11T16:54:40.237Z,22.90
2017-06-11T16:57:08.003Z,22.50
2017-06-11T16:59:35.634Z,22.50
2017-06-11T17:02:03.250Z,22.40
2017-06-11T17:04:30.964Z,22.60
2017-06-11T17:06:58.630Z,22.50
2017-06-11T17:09:26.325Z,22.80
2017-06-11T17:11:53.983Z,22.20
2017-06-11T17:14:21.665Z,22.30
2017-06-11T17:16:49.608Z,22.90
2017-06-11T17:19:18.233Z,23.30
2017-06-11T17:21:45.961Z,22.90
2017-06-11T17:24:13.573Z,22.80
2017-06-11T17:26:41.204Z,22.90
2017-06-11T17:29:09.440Z,23.00
2017-06-11T17:31:37.120Z,22.90
2017-06-11T17:34:04.840Z,22.80
2017-06-11T17:36:32.499Z,22.80
2017-06-11T17:39:00.119Z,21.80
2017-06-11T17:41:27.763Z,22.40
2017-06-11T17:43:55.396Z,23.00
2017-06-11T17:46:23.089Z,22.30
2017-06-11T17:48:50.756Z,22.70
2017-06-11T17:51:19.279Z,22.40
2017-06-11T17:53:46.992Z,22.80
2017-06-11T17:56:15.390Z,22.80
2017-06-11T17:58:43.060Z,22.70
2017-06-11T18:01:10.673Z,23.10
2017-06-11T18:03:38.299Z,23.40
2017-06-11T18:06:06.526Z,23.50
2017-06-11T18:08:34.206Z,23.80
2017-06-11T18:11:01.901Z,23.70
2017-06-11T18:13:29.525Z,23.80
2017-06-11T18:15:57.151Z,23.70
2017-06-11T18:18:24.993Z,23.80
2017-06-11T18:20:52.634Z,23.90
2017-06-11T18:23:20.307Z,24.10
2017-06-11T18:25:47.988Z,24.80
2017-06-11T18:28:15.606Z,26.00
2017-06-11T18:30:43.250Z,25.40
2017-06-11T18:33:10.867Z,26.50
2017-06-11T18:35:38.558Z,25.60
2017-06-11T18:38:07.141Z,26.10
2017-06-11T18:40:34.748Z,26.40
2017-06-11T18:43:02.548Z,29.20
2017-06-11T18:45:30.205Z,29.00
2017-06-11T18:47:58.636Z,29.40
2017-06-11T18:50:26.257Z,28.80
2017-06-11T18:52:53.959Z,26.90
2017-06-11T18:55:21.772Z,27.40
2017-06-11T18:57:49.534Z,27.80
2017-06-11T19:00:17.295Z,27.40
2017-06-11T19:02:44.920Z,29.40
2017-06-11T19:05:12.578Z,27.40
2017-06-11T19:07:40.416Z,30.00
2017-06-11T19:10:08.086Z,26.40
2017-06-11T19:12:35.744Z,26.70
2017-06-11T19:15:03.366Z,26.10
2017-06-11T19:17:31.003Z,26.60
2017-06-11T19:19:58.666Z,26.70
2017-06-11T19:22:26.287Z,26.60
2017-06-11T19:24:53.980Z,26.50
2017-06-11T19:27:22.247Z,26.50
2017-06-11T19:29:49.900Z,26.30
2017-06-11T19:32:17.544Z,26.60
2017-06-11T19:34:45.185Z,26.70
2017-06-11T19:37:12.945Z,26.90
2017-06-11T19:39:40.593Z,27.20
2017-06-11T19:42:08.223Z,27.30
2017-06-11T19:44:36.046Z,27.10
2017-06-11T19:47:03.696Z,27.20
2017-06-11T19:49:31.422Z,27.50
2017-06-11T19:51:59.835Z,27.40
2017-06-11T19:54:27.466Z,27.40
2017-06-11T19:56:56.929Z,27.70
2017-06-11T19:59:24.557Z,28.00
2017-06-11T20:01:52.237Z,27.90
2017-06-11T20:04:20.028Z,28.10
2017-06-11T20:06:48.406Z,27.90
2017-06-11T20:09:16.085Z,27.80
2017-06-11T20:11:43.765Z,28.10
2017-06-11T20:14:11.437Z,28.20
2017-06-11T20:16:39.888Z,28.80
2017-06-11T20:19:07.552Z,28.50
2017-06-11T20:21:35.236Z,28.70
2017-06-11T20:24:02.937Z,28.40
2017-06-11T20:26:30.616Z,28.60
2017-06-11T20:28:58.319Z,28.80
2017-06-11T20:31:26.088Z,28.50
2017-06-11T20:33:54.629Z,28.60
2017-06-11T20:36:22.306Z,28.60
2017-06-11T20:38:50.785Z,28.70
2017-06-11T20:41:18.415Z,28.70
2017-06-11T20:43:46.038Z,28.60
2017-06-11T20:46:13.672Z,29.20
2017-06-11T20:48:41.345Z,29.00
2017-06-11T20:51:09.024Z,29.00
2017-06-11T20:53:36.665Z,29.00
2017-06-11T20:56:05.051Z,29.50
2017-06-11T20:58:32.701Z,29.40
2017-06-11T21:01:00.309Z,28.90
2017-06-11T21:03:27.998Z,29.20
2017-06-11T21:05:55.625Z,29.50
2017-06-11T21:08:23.254Z,29.20
2017-06-11T21:10:51.668Z,29.60
2017-06-11T21:13:19.288Z,29.50
2017-06-11T21:15:46.982Z,29.30
2017-06-11T21:18:14.609Z,29.30
2017-06-11T21:20:42.288Z,29.20
2017-06-11T21:23:09.933Z,29.20
2017-06-11T21:25:37.553Z,29.00
2017-06-11T21:28:05.223Z,29.00
2017-06-11T21:30:32.828Z,29.00
2017-06-11T21:33:00.449Z,29.50
2017-06-11T21:35:28.114Z,29.00
2017-06-11T21:37:55.720Z,29.00
2017-06-11T21:40:23.380Z,29.20
2017-06-11T21:42:51.007Z,28.80
2017-06-11T21:45:18.616Z,29.00
2017-06-11T21:47:46.260Z,29.30
2017-06-11T21:50:13.900Z,29.10
2017-06-11T21:52:41.560Z,29.40
2017-06-11T21:55:09.184Z,30.30
2017-06-11T21:57:36.796Z,30.80
2017-06-11T22:00:04.557Z,31.60
2017-06-11T22:02:32.936Z,32.90
2017-06-11T22:05:00.593Z,32.90
2017-06-11T22:07:28.212Z,33.00
2017-06-11T22:09:55.834Z,32.80
2017-06-11T22:12:24.266Z,33.20
2017-06-11T22:14:51.883Z,33.20
2017-06-11T22:17:19.541Z,32.90
2017-06-11T22:19:47.163Z,32.60
2017-06-11T22:22:14.776Z,32.70
2017-06-11T22:24:42.413Z,33.10
2017-06-11T22:27:10.039Z,33.10
2017-06-11T22:29:37.698Z,33.30
2017-06-11T22:32:05.334Z,33.80
2017-06-11T22:34:32.959Z,34.10
2017-06-11T22:37:00.614Z,33.90
2017-06-11T22:39:28.228Z,34.70
2017-06-11T22:41:55.900Z,34.00
2017-06-11T22:44:23.551Z,34.10
2017-06-11T22:46:51.159Z,34.20
2017-06-11T22:49:18.820Z,34.00
2017-06-11T22:51:46.455Z,34.10
2017-06-11T22:54:14.877Z,34.10
2017-06-11T22:56:42.485Z,34.10
2017-06-11T22:59:10.097Z,34.00
2017-06-11T23:01:37.739Z,34.00
2017-06-11T23:04:05.343Z,34.40
2017-06-11T23:06:33.001Z,34.10
2017-06-11T23:09:00.855Z,34.20
2017-06-11T23:11:28.509Z,34.20
2017-06-11T23:13:56.165Z,34.50
2017-06-11T23:16:23.804Z,34.50
2017-06-11T23:18:51.649Z,35.10
2017-06-11T23:21:19.263Z,34.80
2017-06-11T23:23:46.886Z,34.60
2017-06-11T23:26:14.536Z,35.30
2017-06-11T23:28:42.156Z,34.80
2017-06-11T23:31:09.830Z,35.80
2017-06-11T23:33:37.461Z,38.30
2017-06-11T23:36:05.092Z,38.20
2017-06-11T23:38:32.741Z,36.80
2017-06-11T23:41:00.360Z,37.90
2017-06-11T23:43:28.023Z,38.20
2017-06-11T23:45:55.639Z,40.40
2017-06-11T23:48:23.356Z,40.80
2017-06-11T23:50:51.039Z,40.80
2017-06-11T23:53:18.647Z,41.90
2017-06-11T23:55:46.315Z,41.20
2017-06-11T23:58:13.982Z,40.60
